Terminal Aerodrome Forecast
Issued by NWS

Home | Current Version | Previous Version | Text Only | Print | Product List | Glossary On
Versions: 1 2 3 4 5 6 7 8 9 10 11 12 13 14 15 16 17 18
000
FTUS46 KPDT 252100 AAA
TAFBDN
TAF AMD
KBDN 252131Z 2522/2618 31011G18KT P6SM SCT050
     FM260200 VRB04KT P6SM SCT100
     FM261400 VRB04KT 5SM BR SCT008=

USA.gov is the U.S. government's official web portal to all federal, state and local government web resources and services.